sensor_id;sensor_type;location;lat;lon;timestamp;temperature;humidity
69359;HTU21D;56520;49.066;8.660;2023-04-15T00:00:27;2.57;82.42
69359;HTU21D;56520;49.066;8.660;2023-04-15T00:02:53;2.54;82.41
69359;HTU21D;56520;49.066;8.660;2023-04-15T00:05:19;2.52;82.86
69359;HTU21D;56520;49.066;8.660;2023-04-15T00:07:45;2.50;83.02
69359;HTU21D;56520;49.066;8.660;2023-04-15T00:10:11;2.47;82.79
69359;HTU21D;56520;49.066;8.660;2023-04-15T00:12:36;2.45;82.84
69359;HTU21D;56520;49.066;8.660;2023-04-15T00:15:02;2.43;82.86
69359;HTU21D;56520;49.066;8.660;2023-04-15T00:17:28;2.44;83.65
69359;HTU21D;56520;49.066;8.660;2023-04-15T00:19:53;2.43;84.11
69359;HTU21D;56520;49.066;8.660;2023-04-15T00:22:19;2.44;84.42
69359;HTU21D;56520;49.066;8.660;2023-04-15T00:24:44;2.41;84.49
69359;HTU21D;56520;49.066;8.660;2023-04-15T00:27:10;2.39;84.29
69359;HTU21D;56520;49.066;8.660;2023-04-15T00:29:35;2.37;84.19
69359;HTU21D;56520;49.066;8.660;2023-04-15T00:32:01;2.36;84.71
69359;HTU21D;56520;49.066;8.660;2023-04-15T00:34:27;2.37;85.52
69359;HTU21D;56520;49.066;8.660;2023-04-15T00:36:53;2.39;85.67
69359;HTU21D;56520;49.066;8.660;2023-04-15T00:39:19;2.34;85.32
69359;HTU21D;56520;49.066;8.660;2023-04-15T00:41:45;2.29;85.27
69359;HTU21D;56520;49.066;8.660;2023-04-15T00:44:10;2.26;85.29
69359;HTU21D;56520;49.066;8.660;2023-04-15T00:46:36;2.22;85.53
69359;HTU21D;56520;49.066;8.660;2023-04-15T00:49:06;2.21;85.42
69359;HTU21D;56520;49.066;8.660;2023-04-15T00:51:32;2.21;85.77
69359;HTU21D;56520;49.066;8.660;2023-04-15T00:54:00;2.19;85.87
69359;HTU21D;56520;49.066;8.660;2023-04-15T00:56:29;2.20;86.35
69359;HTU21D;56520;49.066;8.660;2023-04-15T00:58:55;2.20;86.96
69359;HTU21D;56520;49.066;8.660;2023-04-15T01:01:21;2.23;87.36
69359;HTU21D;56520;49.066;8.660;2023-04-15T01:03:47;2.23;87.14
69359;HTU21D;56520;49.066;8.660;2023-04-15T01:06:13;2.19;87.19
69359;HTU21D;56520;49.066;8.660;2023-04-15T01:08:39;2.14;87.17
69359;HTU21D;56520;49.066;8.660;2023-04-15T01:11:06;2.12;87.45
69359;HTU21D;56520;49.066;8.660;2023-04-15T01:13:32;2.08;87.39
69359;HTU21D;56520;49.066;8.660;2023-04-15T01:15:58;2.03;87.41
69359;HTU21D;56520;49.066;8.660;2023-04-15T01:18:25;2.01;87.23
69359;HTU21D;56520;49.066;8.660;2023-04-15T01:20:50;2.00;86.83
69359;HTU21D;56520;49.066;8.660;2023-04-15T01:23:16;1.98;86.72
69359;HTU21D;56520;49.066;8.660;2023-04-15T01:25:41;1.99;86.71
69359;HTU21D;56520;49.066;8.660;2023-04-15T01:28:07;2.01;87.00
69359;HTU21D;56520;49.066;8.660;2023-04-15T01:30:34;2.03;87.15
69359;HTU21D;56520;49.066;8.660;2023-04-15T01:32:59;2.06;87.19
69359;HTU21D;56520;49.066;8.660;2023-04-15T01:35:25;2.06;87.25
69359;HTU21D;56520;49.066;8.660;2023-04-15T01:37:53;2.06;87.45
69359;HTU21D;56520;49.066;8.660;2023-04-15T01:40:28;2.07;87.38
69359;HTU21D;56520;49.066;8.660;2023-04-15T01:42:54;2.05;87.19
69359;HTU21D;56520;49.066;8.660;2023-04-15T01:45:19;2.02;87.09
69359;HTU21D;56520;49.066;8.660;2023-04-15T01:47:44;2.00;87.31
69359;HTU21D;56520;49.066;8.660;2023-04-15T01:50:10;1.98;87.42
69359;HTU21D;56520;49.066;8.660;2023-04-15T01:52:35;1.92;87.34
69359;HTU21D;56520;49.066;8.660;2023-04-15T01:55:00;1.87;87.15
69359;HTU21D;56520;49.066;8.660;2023-04-15T01:57:26;1.85;87.00
69359;HTU21D;56520;49.066;8.660;2023-04-15T01:59:51;1.82;86.93
69359;HTU21D;56520;49.066;8.660;2023-04-15T02:02:16;1.77;86.89
69359;HTU21D;56520;49.066;8.660;2023-04-15T02:04:42;1.76;86.96
69359;HTU21D;56520;49.066;8.660;2023-04-15T02:07:07;1.71;87.23
69359;HTU21D;56520;49.066;8.660;2023-04-15T02:09:32;1.70;87.51
69359;HTU21D;56520;49.066;8.660;2023-04-15T02:11:58;1.71;88.06
69359;HTU21D;56520;49.066;8.660;2023-04-15T02:14:27;1.71;88.35
69359;HTU21D;56520;49.066;8.660;2023-04-15T02:16:52;1.71;88.76
69359;HTU21D;56520;49.066;8.660;2023-04-15T02:19:18;1.71;88.66
69359;HTU21D;56520;49.066;8.660;2023-04-15T02:21:43;1.68;88.90
69359;HTU21D;56520;49.066;8.660;2023-04-15T02:24:08;1.65;88.88
69359;HTU21D;56520;49.066;8.660;2023-04-15T02:26:34;1.60;88.64
69359;HTU21D;56520;49.066;8.660;2023-04-15T02:28:59;1.60;88.57
69359;HTU21D;56520;49.066;8.660;2023-04-15T02:31:25;1.57;88.67
69359;HTU21D;56520;49.066;8.660;2023-04-15T02:33:50;1.57;88.64
69359;HTU21D;56520;49.066;8.660;2023-04-15T02:36:16;1.53;88.57
69359;HTU21D;56520;49.066;8.660;2023-04-15T02:38:41;1.51;88.45
69359;HTU21D;56520;49.066;8.660;2023-04-15T02:41:10;1.51;88.51
69359;HTU21D;56520;49.066;8.660;2023-04-15T02:43:36;1.47;88.56
69359;HTU21D;56520;49.066;8.660;2023-04-15T02:46:02;1.45;88.48
69359;HTU21D;56520;49.066;8.660;2023-04-15T02:48:27;1.40;88.50
69359;HTU21D;56520;49.066;8.660;2023-04-15T02:50:53;1.38;88.55
69359;HTU21D;56520;49.066;8.660;2023-04-15T02:53:18;1.37;88.59
69359;HTU21D;56520;49.066;8.660;2023-04-15T02:55:44;1.37;88.82
69359;HTU21D;56520;49.066;8.660;2023-04-15T02:58:10;1.34;89.05
69359;HTU21D;56520;49.066;8.660;2023-04-15T03:00:35;1.33;89.22
69359;HTU21D;56520;49.066;8.660;2023-04-15T03:03:02;1.32;89.25
69359;HTU21D;56520;49.066;8.660;2023-04-15T03:05:28;1.29;89.32
69359;HTU21D;56520;49.066;8.660;2023-04-15T03:07:53;1.25;89.29
69359;HTU21D;56520;49.066;8.660;2023-04-15T03:10:19;1.24;89.39
69359;HTU21D;56520;49.066;8.660;2023-04-15T03:12:45;1.25;89.70
69359;HTU21D;56520;49.066;8.660;2023-04-15T03:15:10;1.22;89.99
69359;HTU21D;56520;49.066;8.660;2023-04-15T03:17:36;1.18;89.93
69359;HTU21D;56520;49.066;8.660;2023-04-15T03:20:02;1.12;89.83
69359;HTU21D;56520;49.066;8.660;2023-04-15T03:22:30;1.07;89.76
69359;HTU21D;56520;49.066;8.660;2023-04-15T03:24:55;1.05;89.72
69359;HTU21D;56520;49.066;8.660;2023-04-15T03:27:21;1.04;90.10
69359;HTU21D;56520;49.066;8.660;2023-04-15T03:29:46;1.05;90.50
69359;HTU21D;56520;49.066;8.660;2023-04-15T03:32:11;1.04;90.66
69359;HTU21D;56520;49.066;8.660;2023-04-15T03:34:37;1.08;90.72
69359;HTU21D;56520;49.066;8.660;2023-04-15T03:37:02;1.17;91.19
69359;HTU21D;56520;49.066;8.660;2023-04-15T03:39:27;1.19;91.62
69359;HTU21D;56520;49.066;8.660;2023-04-15T03:41:53;1.20;91.53
69359;HTU21D;56520;49.066;8.660;2023-04-15T03:44:18;1.17;91.35
69359;HTU21D;56520;49.066;8.660;2023-04-15T03:46:43;1.13;91.13
69359;HTU21D;56520;49.066;8.660;2023-04-15T03:49:09;1.09;90.98
69359;HTU21D;56520;49.066;8.660;2023-04-15T03:51:34;1.09;90.89
69359;HTU21D;56520;49.066;8.660;2023-04-15T03:54:00;1.06;90.74
69359;HTU21D;56520;49.066;8.660;2023-04-15T03:56:26;1.02;90.66
69359;HTU21D;56520;49.066;8.660;2023-04-15T03:58:51;0.98;91.02
69359;HTU21D;56520;49.066;8.660;2023-04-15T04:01:17;0.99;90.97
69359;HTU21D;56520;49.066;8.660;2023-04-15T04:03:42;1.04;91.09
69359;HTU21D;56520;49.066;8.660;2023-04-15T04:06:08;1.04;90.90
69359;HTU21D;56520;49.066;8.660;2023-04-15T04:08:34;1.02;90.89
69359;HTU21D;56520;49.066;8.660;2023-04-15T04:10:59;0.99;90.82
69359;HTU21D;56520;49.066;8.660;2023-04-15T04:13:27;0.98;91.05
69359;HTU21D;56520;49.066;8.660;2023-04-15T04:15:52;0.96;91.28
69359;HTU21D;56520;49.066;8.660;2023-04-15T04:18:18;0.93;91.36
69359;HTU21D;56520;49.066;8.660;2023-04-15T04:20:43;0.91;91.67
69359;HTU21D;56520;49.066;8.660;2023-04-15T04:23:09;0.96;92.16
69359;HTU21D;56520;49.066;8.660;2023-04-15T04:25:34;0.96;92.30
69359;HTU21D;56520;49.066;8.660;2023-04-15T04:27:59;0.95;92.42
69359;HTU21D;56520;49.066;8.660;2023-04-15T04:30:25;0.90;92.43
69359;HTU21D;56520;49.066;8.660;2023-04-15T04:32:50;0.84;92.50
69359;HTU21D;56520;49.066;8.660;2023-04-15T04:35:16;0.82;92.48
69359;HTU21D;56520;49.066;8.660;2023-04-15T04:37:41;0.80;92.69
69359;HTU21D;56520;49.066;8.660;2023-04-15T04:40:07;0.84;93.14
69359;HTU21D;56520;49.066;8.660;2023-04-15T04:42:33;0.86;93.01
69359;HTU21D;56520;49.066;8.660;2023-04-15T04:44:59;0.82;92.82
69359;HTU21D;56520;49.066;8.660;2023-04-15T04:47:24;0.78;92.69
69359;HTU21D;56520;49.066;8.660;2023-04-15T04:49:50;0.77;92.57
69359;HTU21D;56520;49.066;8.660;2023-04-15T04:52:15;0.76;92.46
69359;HTU21D;56520;49.066;8.660;2023-04-15T04:54:40;0.75;92.37
69359;HTU21D;56520;49.066;8.660;2023-04-15T04:57:05;0.75;92.36
69359;HTU21D;56520;49.066;8.660;2023-04-15T04:59:32;0.76;92.32
69359;HTU21D;56520;49.066;8.660;2023-04-15T05:01:57;0.77;92.46
69359;HTU21D;56520;49.066;8.660;2023-04-15T05:04:23;0.78;92.34
69359;HTU21D;56520;49.066;8.660;2023-04-15T05:06:48;0.79;92.28
69359;HTU21D;56520;49.066;8.660;2023-04-15T05:09:14;0.81;92.17
69359;HTU21D;56520;49.066;8.660;2023-04-15T05:11:39;0.84;92.03
69359;HTU21D;56520;49.066;8.660;2023-04-15T05:14:05;0.84;92.15
69359;HTU21D;56520;49.066;8.660;2023-04-15T05:16:30;0.88;92.32
69359;HTU21D;56520;49.066;8.660;2023-04-15T05:18:56;0.91;92.59
69359;HTU21D;56520;49.066;8.660;2023-04-15T05:21:21;0.92;92.60
69359;HTU21D;56520;49.066;8.660;2023-04-15T05:23:47;0.96;92.77
69359;HTU21D;56520;49.066;8.660;2023-04-15T05:26:12;1.02;92.75
69359;HTU21D;56520;49.066;8.660;2023-04-15T05:28:38;1.06;92.96
69359;HTU21D;56520;49.066;8.660;2023-04-15T05:31:03;1.10;92.90
69359;HTU21D;56520;49.066;8.660;2023-04-15T05:33:29;1.16;92.99
69359;HTU21D;56520;49.066;8.660;2023-04-15T05:35:54;1.21;93.14
69359;HTU21D;56520;49.066;8.660;2023-04-15T05:38:20;1.32;93.24
69359;HTU21D;56520;49.066;8.660;2023-04-15T05:40:45;1.46;93.17
69359;HTU21D;56520;49.066;8.660;2023-04-15T05:43:11;1.51;93.16
69359;HTU21D;56520;49.066;8.660;2023-04-15T05:45:36;1.61;93.00
69359;HTU21D;56520;49.066;8.660;2023-04-15T05:48:01;1.69;92.84
69359;HTU21D;56520;49.066;8.660;2023-04-15T05:50:27;1.78;92.71
69359;HTU21D;56520;49.066;8.660;2023-04-15T05:52:52;1.83;92.45
69359;HTU21D;56520;49.066;8.660;2023-04-15T05:55:18;1.92;92.37
69359;HTU21D;56520;49.066;8.660;2023-04-15T05:57:43;2.01;92.17
69359;HTU21D;56520;49.066;8.660;2023-04-15T06:00:09;2.11;91.99
69359;HTU21D;56520;49.066;8.660;2023-04-15T06:02:34;2.19;91.90
69359;HTU21D;56520;49.066;8.660;2023-04-15T06:05:00;2.25;91.69
69359;HTU21D;56520;49.066;8.660;2023-04-15T06:07:25;2.36;91.61
69359;HTU21D;56520;49.066;8.660;2023-04-15T06:09:51;2.49;91.26
69359;HTU21D;56520;49.066;8.660;2023-04-15T06:12:16;2.64;90.91
69359;HTU21D;56520;49.066;8.660;2023-04-15T06:14:42;2.76;90.66
69359;HTU21D;56520;49.066;8.660;2023-04-15T06:17:07;2.91;90.19
69359;HTU21D;56520;49.066;8.660;2023-04-15T06:19:33;3.03;89.86
69359;HTU21D;56520;49.066;8.660;2023-04-15T06:21:59;3.18;89.74
69359;HTU21D;56520;49.066;8.660;2023-04-15T06:24:24;3.34;89.43
69359;HTU21D;56520;49.066;8.660;2023-04-15T06:26:50;3.52;88.82
69359;HTU21D;56520;49.066;8.660;2023-04-15T06:29:15;3.67;88.44
69359;HTU21D;56520;49.066;8.660;2023-04-15T06:31:40;3.82;88.14
69359;HTU21D;56520;49.066;8.660;2023-04-15T06:34:06;3.94;87.93
69359;HTU21D;56520;49.066;8.660;2023-04-15T06:36:32;4.09;87.70
69359;HTU21D;56520;49.066;8.660;2023-04-15T06:38:57;4.28;87.40
69359;HTU21D;56520;49.066;8.660;2023-04-15T06:41:22;4.48;87.16
69359;HTU21D;56520;49.066;8.660;2023-04-15T06:43:48;4.65;86.83
69359;HTU21D;56520;49.066;8.660;2023-04-15T06:46:13;4.81;86.41
69359;HTU21D;56520;49.066;8.660;2023-04-15T06:48:39;4.97;86.01
69359;HTU21D;56520;49.066;8.660;2023-04-15T06:51:04;5.11;85.58
69359;HTU21D;56520;49.066;8.660;2023-04-15T06:53:30;5.27;85.20
69359;HTU21D;56520;49.066;8.660;2023-04-15T06:55:55;5.43;84.97
69359;HTU21D;56520;49.066;8.660;2023-04-15T06:58:21;5.62;84.89
69359;HTU21D;56520;49.066;8.660;2023-04-15T07:00:46;5.80;84.79
69359;HTU21D;56520;49.066;8.660;2023-04-15T07:03:12;6.00;84.68
69359;HTU21D;56520;49.066;8.660;2023-04-15T07:05:39;6.21;83.97
69359;HTU21D;56520;49.066;8.660;2023-04-15T07:08:04;6.39;83.74
69359;HTU21D;56520;49.066;8.660;2023-04-15T07:10:31;6.53;82.80
69359;HTU21D;56520;49.066;8.660;2023-04-15T07:13:00;6.74;82.67
69359;HTU21D;56520;49.066;8.660;2023-04-15T07:15:26;7.01;81.42
69359;HTU21D;56520;49.066;8.660;2023-04-15T07:17:51;7.26;81.56
69359;HTU21D;56520;49.066;8.660;2023-04-15T07:20:16;7.50;79.52
69359;HTU21D;56520;49.066;8.660;2023-04-15T07:22:42;7.75;79.62
69359;HTU21D;56520;49.066;8.660;2023-04-15T07:25:08;8.03;79.36
69359;HTU21D;56520;49.066;8.660;2023-04-15T07:27:34;8.31;76.85
69359;HTU21D;56520;49.066;8.660;2023-04-15T07:29:59;8.55;77.18
69359;HTU21D;56520;49.066;8.660;2023-04-15T07:32:25;8.77;77.14
69359;HTU21D;56520;49.066;8.660;2023-04-15T07:34:50;9.03;76.79
69359;HTU21D;56520;49.066;8.660;2023-04-15T07:37:16;9.31;74.87
69359;HTU21D;56520;49.066;8.660;2023-04-15T07:39:41;9.54;71.02
69359;HTU21D;56520;49.066;8.660;2023-04-15T07:42:07;9.71;72.14
69359;HTU21D;56520;49.066;8.660;2023-04-15T07:44:33;9.94;68.91
69359;HTU21D;56520;49.066;8.660;2023-04-15T07:46:59;10.16;69.48
69359;HTU21D;56520;49.066;8.660;2023-04-15T07:49:24;10.24;67.99
69359;HTU21D;56520;49.066;8.660;2023-04-15T07:51:50;10.27;69.26
69359;HTU21D;56520;49.066;8.660;2023-04-15T07:54:15;10.44;66.00
69359;HTU21D;56520;49.066;8.660;2023-04-15T07:56:41;10.64;64.15
69359;HTU21D;56520;49.066;8.660;2023-04-15T07:59:07;10.75;65.77
69359;HTU21D;56520;49.066;8.660;2023-04-15T08:01:33;10.88;64.82
69359;HTU21D;56520;49.066;8.660;2023-04-15T08:03:59;11.02;65.19
69359;HTU21D;56520;49.066;8.660;2023-04-15T08:06:24;11.14;65.42
69359;HTU21D;56520;49.066;8.660;2023-04-15T08:08:50;11.29;65.81
69359;HTU21D;56520;49.066;8.660;2023-04-15T08:11:16;11.38;65.61
69359;HTU21D;56520;49.066;8.660;2023-04-15T08:13:41;11.42;65.17
69359;HTU21D;56520;49.066;8.660;2023-04-15T08:16:21;11.42;65.32
69359;HTU21D;56520;49.066;8.660;2023-04-15T08:18:47;11.46;65.53
69359;HTU21D;56520;49.066;8.660;2023-04-15T08:21:13;11.59;65.75
69359;HTU21D;56520;49.066;8.660;2023-04-15T08:23:39;11.81;65.82
69359;HTU21D;56520;49.066;8.660;2023-04-15T08:26:04;11.99;62.89
69359;HTU21D;56520;49.066;8.660;2023-04-15T08:28:30;11.96;62.71
69359;HTU21D;56520;49.066;8.660;2023-04-15T08:30:56;12.14;63.64
69359;HTU21D;56520;49.066;8.660;2023-04-15T08:33:21;12.60;64.16
69359;HTU21D;56520;49.066;8.660;2023-04-15T08:35:47;13.10;61.43
69359;HTU21D;56520;49.066;8.660;2023-04-15T08:38:13;13.37;62.28
69359;HTU21D;56520;49.066;8.660;2023-04-15T08:40:43;13.58;62.24
69359;HTU21D;56520;49.066;8.660;2023-04-15T08:43:12;13.76;61.50
69359;HTU21D;56520;49.066;8.660;2023-04-15T08:45:40;13.79;61.09
69359;HTU21D;56520;49.066;8.660;2023-04-15T08:48:08;13.77;61.35
69359;HTU21D;56520;49.066;8.660;2023-04-15T08:50:37;13.53;60.38
69359;HTU21D;56520;49.066;8.660;2023-04-15T08:53:03;13.40;60.15
69359;HTU21D;56520;49.066;8.660;2023-04-15T08:55:32;13.43;58.26
69359;HTU21D;56520;49.066;8.660;2023-04-15T08:58:00;13.49;60.05
69359;HTU21D;56520;49.066;8.660;2023-04-15T09:00:30;13.77;58.58
69359;HTU21D;56520;49.066;8.660;2023-04-15T09:02:55;13.86;58.94
69359;HTU21D;56520;49.066;8.660;2023-04-15T09:05:21;14.12;58.31
69359;HTU21D;56520;49.066;8.660;2023-04-15T09:07:47;14.37;59.45
69359;HTU21D;56520;49.066;8.660;2023-04-15T09:10:14;14.47;57.64
69359;HTU21D;56520;49.066;8.660;2023-04-15T09:12:40;14.56;58.38
69359;HTU21D;56520;49.066;8.660;2023-04-15T09:15:10;14.74;57.00
69359;HTU21D;56520;49.066;8.660;2023-04-15T09:17:44;15.09;55.65
69359;HTU21D;56520;49.066;8.660;2023-04-15T09:20:11;15.61;52.59
69359;HTU21D;56520;49.066;8.660;2023-04-15T09:22:39;15.89;55.05
69359;HTU21D;56520;49.066;8.660;2023-04-15T09:27:50;16.35;51.47
69359;HTU21D;56520;49.066;8.660;2023-04-15T09:30:16;16.35;50.68
69359;HTU21D;56520;49.066;8.660;2023-04-15T09:33:08;16.21;51.33
69359;HTU21D;56520;49.066;8.660;2023-04-15T09:35:35;16.30;52.03
69359;HTU21D;56520;49.066;8.660;2023-04-15T09:38:05;16.48;51.85
69359;HTU21D;56520;49.066;8.660;2023-04-15T09:40:38;16.67;49.93
69359;HTU21D;56520;49.066;8.660;2023-04-15T09:43:04;16.72;50.63
69359;HTU21D;56520;49.066;8.660;2023-04-15T09:45:31;16.84;50.30
69359;HTU21D;56520;49.066;8.660;2023-04-15T09:47:58;16.66;49.79
69359;HTU21D;56520;49.066;8.660;2023-04-15T09:50:27;16.43;49.70
69359;HTU21D;56520;49.066;8.660;2023-04-15T09:52:54;16.34;50.21
69359;HTU21D;56520;49.066;8.660;2023-04-15T09:55:19;16.24;50.08
69359;HTU21D;56520;49.066;8.660;2023-04-15T09:57:45;16.12;50.70
69359;HTU21D;56520;49.066;8.660;2023-04-15T10:00:11;16.17;50.84
69359;HTU21D;56520;49.066;8.660;2023-04-15T10:02:41;16.28;50.95
69359;HTU21D;56520;49.066;8.660;2023-04-15T10:05:09;16.44;49.98
69359;HTU21D;56520;49.066;8.660;2023-04-15T10:07:35;16.41;49.00
69359;HTU21D;56520;49.066;8.660;2023-04-15T10:10:02;16.33;49.58
69359;HTU21D;56520;49.066;8.660;2023-04-15T10:12:29;16.28;50.36
69359;HTU21D;56520;49.066;8.660;2023-04-15T10:14:58;16.41;50.59
69359;HTU21D;56520;49.066;8.660;2023-04-15T10:17:27;16.58;50.55
69359;HTU21D;56520;49.066;8.660;2023-04-15T10:20:00;16.86;49.94
69359;HTU21D;56520;49.066;8.660;2023-04-15T10:22:26;16.89;47.76
69359;HTU21D;56520;49.066;8.660;2023-04-15T10:24:52;16.74;47.48
69359;HTU21D;56520;49.066;8.660;2023-04-15T10:27:18;16.72;48.85
69359;HTU21D;56520;49.066;8.660;2023-04-15T10:29:44;16.76;46.15
69359;HTU21D;56520;49.066;8.660;2023-04-15T10:32:10;16.79;47.78
69359;HTU21D;56520;49.066;8.660;2023-04-15T10:34:36;16.96;46.15
69359;HTU21D;56520;49.066;8.660;2023-04-15T10:37:03;16.96;46.28
69359;HTU21D;56520;49.066;8.660;2023-04-15T10:39:43;16.93;46.41
69359;HTU21D;56520;49.066;8.660;2023-04-15T10:42:17;17.05;47.37
69359;HTU21D;56520;49.066;8.660;2023-04-15T10:44:50;17.19;47.12
69359;HTU21D;56520;49.066;8.660;2023-04-15T10:47:18;17.23;45.85
69359;HTU21D;56520;49.066;8.660;2023-04-15T10:49:51;17.11;44.47
69359;HTU21D;56520;49.066;8.660;2023-04-15T10:52:21;16.95;46.11
69359;HTU21D;56520;49.066;8.660;2023-04-15T10:55:22;16.72;43.22
69359;HTU21D;56520;49.066;8.660;2023-04-15T10:57:53;16.62;44.64
69359;HTU21D;56520;49.066;8.660;2023-04-15T11:00:24;16.70;44.93
69359;HTU21D;56520;49.066;8.660;2023-04-15T11:05:22;16.43;47.27
69359;HTU21D;56520;49.066;8.660;2023-04-15T11:07:54;16.62;45.92
69359;HTU21D;56520;49.066;8.660;2023-04-15T11:12:46;16.84;46.47
69359;HTU21D;56520;49.066;8.660;2023-04-15T11:17:54;17.32;45.96
69359;HTU21D;56520;49.066;8.660;2023-04-15T11:20:19;17.37;43.41
69359;HTU21D;56520;49.066;8.660;2023-04-15T11:22:52;17.19;43.47
69359;HTU21D;56520;49.066;8.660;2023-04-15T11:25:29;16.87;45.72
69359;HTU21D;56520;49.066;8.660;2023-04-15T11:28:01;16.96;44.99
69359;HTU21D;56520;49.066;8.660;2023-04-15T11:30:29;17.09;44.77
69359;HTU21D;56520;49.066;8.660;2023-04-15T11:32:58;17.18;46.04
69359;HTU21D;56520;49.066;8.660;2023-04-15T11:35:24;17.47;45.40
69359;HTU21D;56520;49.066;8.660;2023-04-15T11:37:49;17.89;41.49
69359;HTU21D;56520;49.066;8.660;2023-04-15T11:40:16;17.91;42.18
69359;HTU21D;56520;49.066;8.660;2023-04-15T11:42:44;18.02;41.45
69359;HTU21D;56520;49.066;8.660;2023-04-15T11:45:12;18.34;40.56
69359;HTU21D;56520;49.066;8.660;2023-04-15T11:47:39;18.48;40.77
69359;HTU21D;56520;49.066;8.660;2023-04-15T11:52:57;18.55;40.78
69359;HTU21D;56520;49.066;8.660;2023-04-15T11:55:26;18.83;39.80
69359;HTU21D;56520;49.066;8.660;2023-04-15T12:06:09;18.61;40.61
69359;HTU21D;56520;49.066;8.660;2023-04-15T12:13:53;17.63;40.81
69359;HTU21D;56520;49.066;8.660;2023-04-15T12:16:26;17.51;42.26
69359;HTU21D;56520;49.066;8.660;2023-04-15T12:18:53;17.37;41.85
69359;HTU21D;56520;49.066;8.660;2023-04-15T12:21:25;17.26;43.27
69359;HTU21D;56520;49.066;8.660;2023-04-15T12:23:55;17.21;44.21
69359;HTU21D;56520;49.066;8.660;2023-04-15T12:29:10;17.18;45.77
69359;HTU21D;56520;49.066;8.660;2023-04-15T12:31:42;17.19;42.19
69359;HTU21D;56520;49.066;8.660;2023-04-15T12:34:10;16.82;43.40
69359;HTU21D;56520;49.066;8.660;2023-04-15T12:36:36;16.52;44.20
69359;HTU21D;56520;49.066;8.660;2023-04-15T12:39:02;16.47;43.89
69359;HTU21D;56520;49.066;8.660;2023-04-15T12:41:29;16.44;42.84
69359;HTU21D;56520;49.066;8.660;2023-04-15T12:43:54;16.51;41.50
69359;HTU21D;56520;49.066;8.660;2023-04-15T12:46:19;16.59;43.12
69359;HTU21D;56520;49.066;8.660;2023-04-15T12:48:46;16.58;41.13
69359;HTU21D;56520;49.066;8.660;2023-04-15T12:51:11;16.33;40.71
69359;HTU21D;56520;49.066;8.660;2023-04-15T12:53:37;16.15;42.95
69359;HTU21D;56520;49.066;8.660;2023-04-15T12:56:02;16.13;42.29
69359;HTU21D;56520;49.066;8.660;2023-04-15T12:58:28;15.95;43.59
69359;HTU21D;56520;49.066;8.660;2023-04-15T13:00:53;15.81;41.82
69359;HTU21D;56520;49.066;8.660;2023-04-15T13:03:18;15.70;42.04
69359;HTU21D;56520;49.066;8.660;2023-04-15T13:05:44;15.76;41.28
69359;HTU21D;56520;49.066;8.660;2023-04-15T13:08:10;15.62;41.20
69359;HTU21D;56520;49.066;8.660;2023-04-15T13:10:35;15.47;40.85
69359;HTU21D;56520;49.066;8.660;2023-04-15T13:13:01;15.51;41.89
69359;HTU21D;56520;49.066;8.660;2023-04-15T13:15:27;15.33;39.91
69359;HTU21D;56520;49.066;8.660;2023-04-15T13:17:52;15.02;41.23
69359;HTU21D;56520;49.066;8.660;2023-04-15T13:20:18;14.92;42.57
69359;HTU21D;56520;49.066;8.660;2023-04-15T13:22:44;14.83;42.56
69359;HTU21D;56520;49.066;8.660;2023-04-15T13:25:09;14.73;42.62
69359;HTU21D;56520;49.066;8.660;2023-04-15T13:27:34;14.70;43.60
69359;HTU21D;56520;49.066;8.660;2023-04-15T13:30:00;14.63;42.80
69359;HTU21D;56520;49.066;8.660;2023-04-15T13:32:25;14.54;44.38
69359;HTU21D;56520;49.066;8.660;2023-04-15T13:34:51;14.51;42.83
69359;HTU21D;56520;49.066;8.660;2023-04-15T13:37:16;14.39;43.54
69359;HTU21D;56520;49.066;8.660;2023-04-15T13:39:42;14.42;43.29
69359;HTU21D;56520;49.066;8.660;2023-04-15T13:42:07;14.25;43.52
69359;HTU21D;56520;49.066;8.660;2023-04-15T13:44:33;14.08;45.53
69359;HTU21D;56520;49.066;8.660;2023-04-15T13:46:59;13.95;44.88
69359;HTU21D;56520;49.066;8.660;2023-04-15T13:49:24;13.82;44.80
69359;HTU21D;56520;49.066;8.660;2023-04-15T13:51:50;13.74;44.97
69359;HTU21D;56520;49.066;8.660;2023-04-15T13:54:15;13.71;44.99
69359;HTU21D;56520;49.066;8.660;2023-04-15T13:56:41;13.64;45.80
69359;HTU21D;56520;49.066;8.660;2023-04-15T13:59:06;13.56;45.41
69359;HTU21D;56520;49.066;8.660;2023-04-15T14:01:33;13.52;45.88
69359;HTU21D;56520;49.066;8.660;2023-04-15T14:03:59;13.49;46.37
69359;HTU21D;56520;49.066;8.660;2023-04-15T14:06:24;13.50;46.88
69359;HTU21D;56520;49.066;8.660;2023-04-15T14:08:51;13.54;46.70
69359;HTU21D;56520;49.066;8.660;2023-04-15T14:11:17;13.56;47.50
69359;HTU21D;56520;49.066;8.660;2023-04-15T14:13:42;13.60;47.83
69359;HTU21D;56520;49.066;8.660;2023-04-15T14:16:08;13.66;47.45
69359;HTU21D;56520;49.066;8.660;2023-04-15T14:18:33;13.76;47.56
69359;HTU21D;56520;49.066;8.660;2023-04-15T14:20:58;13.85;47.52
69359;HTU21D;56520;49.066;8.660;2023-04-15T14:23:24;13.86;47.46
69359;HTU21D;56520;49.066;8.660;2023-04-15T14:25:50;13.86;47.64
69359;HTU21D;56520;49.066;8.660;2023-04-15T14:28:16;13.89;47.72
69359;HTU21D;56520;49.066;8.660;2023-04-15T14:30:41;13.88;47.15
69359;HTU21D;56520;49.066;8.660;2023-04-15T14:33:06;13.90;47.22
69359;HTU21D;56520;49.066;8.660;2023-04-15T14:35:32;13.84;46.25
69359;HTU21D;56520;49.066;8.660;2023-04-15T14:37:57;13.79;46.35
69359;HTU21D;56520;49.066;8.660;2023-04-15T14:40:23;13.71;45.67
69359;HTU21D;56520;49.066;8.660;2023-04-15T14:42:48;13.69;45.39
69359;HTU21D;56520;49.066;8.660;2023-04-15T14:45:14;13.70;46.68
69359;HTU21D;56520;49.066;8.660;2023-04-15T14:47:39;13.71;46.05
69359;HTU21D;56520;49.066;8.660;2023-04-15T14:50:05;13.77;45.85
69359;HTU21D;56520;49.066;8.660;2023-04-15T14:52:30;13.82;45.39
69359;HTU21D;56520;49.066;8.660;2023-04-15T14:55:12;13.84;43.75
69359;HTU21D;56520;49.066;8.660;2023-04-15T14:57:38;13.81;44.25
69359;HTU21D;56520;49.066;8.660;2023-04-15T15:00:04;13.83;43.69
69359;HTU21D;56520;49.066;8.660;2023-04-15T15:02:32;13.85;44.15
69359;HTU21D;56520;49.066;8.660;2023-04-15T15:05:00;13.88;44.33
69359;HTU21D;56520;49.066;8.660;2023-04-15T15:07:25;13.89;44.94
69359;HTU21D;56520;49.066;8.660;2023-04-15T15:09:51;13.83;44.70
69359;HTU21D;56520;49.066;8.660;2023-04-15T15:12:17;13.79;44.42
69359;HTU21D;56520;49.066;8.660;2023-04-15T15:14:42;13.76;45.60
69359;HTU21D;56520;49.066;8.660;2023-04-15T15:17:08;13.83;45.84
69359;HTU21D;56520;49.066;8.660;2023-04-15T15:19:34;13.91;45.86
69359;HTU21D;56520;49.066;8.660;2023-04-15T15:21:59;13.95;46.64
69359;HTU21D;56520;49.066;8.660;2023-04-15T15:24:25;13.80;46.99
69359;HTU21D;56520;49.066;8.660;2023-04-15T15:26:50;13.69;48.10
69359;HTU21D;56520;49.066;8.660;2023-04-15T15:29:16;13.54;49.19
69359;HTU21D;56520;49.066;8.660;2023-04-15T15:31:41;13.37;50.92
69359;HTU21D;56520;49.066;8.660;2023-04-15T15:34:06;13.19;51.16
69359;HTU21D;56520;49.066;8.660;2023-04-15T15:36:35;13.07;51.80
69359;HTU21D;56520;49.066;8.660;2023-04-15T15:39:00;13.02;52.63
69359;HTU21D;56520;49.066;8.660;2023-04-15T15:41:25;12.92;54.28
69359;HTU21D;56520;49.066;8.660;2023-04-15T15:43:52;12.81;54.79
69359;HTU21D;56520;49.066;8.660;2023-04-15T15:46:18;12.74;55.52